Time;durP1;ratioP1;P1;durP2;ratioP2;P2;SDS_P1;SDS_P2;PMS_P1;PMS_P2;Temp;Humidity;BMP_temperature;BMP_pressure;BME280_temperature;BME280_humidity;BME280_pressure;Samples;Min_cycle;Max_cycle;Signal;HPM_P1;HPM_P2
2022/10/16 00:01:30;;;;;;;1.30;1.20;;;;;;;;;;5071121;28;20241;-45
2022/10/16 00:03:58;;;;;;;1.40;1.27;;;;;;;;;;5069512;28;20561;-46
2022/10/16 00:06:25;;;;;;;1.50;1.20;;;;;;;;;;5074871;28;20827;-45
2022/10/16 00:08:52;;;;;;;2.73;1.40;;;;;;;;;;5072492;28;20231;-45
2022/10/16 00:11:18;;;;;;;2.77;1.40;;;;;;;;;;5071701;28;20191;-45
2022/10/16 00:13:45;;;;;;;1.60;1.40;;;;;;;;;;5072100;28;20650;-45
2022/10/16 00:16:12;;;;;;;2.97;1.47;;;;;;;;;;5074746;28;20237;-45
2022/10/16 00:18:39;;;;;;;2.60;1.13;;;;;;;;;;5074548;28;20195;-45
2022/10/16 00:21:07;;;;;;;1.30;1.20;;;;;;;;;;5074487;28;20740;-45
2022/10/16 00:23:33;;;;;;;1.50;1.40;;;;;;;;;;5074451;28;20204;-45
2022/10/16 00:26:00;;;;;;;2.13;1.30;;;;;;;;;;5074433;28;20220;-45
2022/10/16 00:28:27;;;;;;;3.30;1.40;;;;;;;;;;5073972;28;20219;-45
2022/10/16 00:30:53;;;;;;;2.23;1.30;;;;;;;;;;5072599;28;20249;-46
2022/10/16 00:33:19;;;;;;;2.27;1.40;;;;;;;;;;5073582;28;20628;-45
2022/10/16 00:35:45;;;;;;;1.33;1.20;;;;;;;;;;5074043;28;20539;-45
2022/10/16 00:38:13;;;;;;;1.50;1.40;;;;;;;;;;5074248;28;20215;-45
2022/10/16 00:40:39;;;;;;;1.70;1.60;;;;;;;;;;5073916;28;20205;-45
2022/10/16 00:43:09;;;;;;;1.60;1.30;;;;;;;;;;5074030;28;20299;-45
2022/10/16 00:45:35;;;;;;;1.60;1.50;;;;;;;;;;5072900;28;20207;-45
2022/10/16 00:48:01;;;;;;;2.07;1.63;;;;;;;;;;5073979;28;20203;-45
2022/10/16 00:50:29;;;;;;;1.83;1.53;;;;;;;;;;5073645;28;20232;-45
2022/10/16 00:52:55;;;;;;;2.03;1.60;;;;;;;;;;5073709;28;20283;-45
2022/10/16 00:55:23;;;;;;;2.40;1.83;;;;;;;;;;5073706;28;20214;-45
2022/10/16 00:57:49;;;;;;;3.20;2.10;;;;;;;;;;5073776;28;20196;-45
2022/10/16 01:00:16;;;;;;;4.13;1.80;;;;;;;;;;5073254;28;20202;-45
2022/10/16 01:02:43;;;;;;;2.30;1.93;;;;;;;;;;5073493;28;20200;-45
2022/10/16 01:05:09;;;;;;;2.63;1.90;;;;;;;;;;5073379;28;20603;-45
2022/10/16 01:07:40;;;;;;;6.27;2.17;;;;;;;;;;5073495;28;20302;-45
2022/10/16 01:10:11;;;;;;;3.10;1.90;;;;;;;;;;5071801;28;20231;-45
2022/10/16 01:12:42;;;;;;;2.83;2.40;;;;;;;;;;5073101;28;20200;-45
2022/10/16 01:15:12;;;;;;;3.37;2.20;;;;;;;;;;5071716;28;20696;-45
2022/10/16 01:17:41;;;;;;;2.80;1.90;;;;;;;;;;5070831;28;20343;-45
2022/10/16 01:20:10;;;;;;;4.67;2.30;;;;;;;;;;5071650;28;20207;-45
2022/10/16 01:22:40;;;;;;;3.83;2.30;;;;;;;;;;5073099;28;20254;-45
2022/10/16 01:25:10;;;;;;;4.37;2.77;;;;;;;;;;5070694;28;20266;-45
2022/10/16 01:27:40;;;;;;;4.33;3.13;;;;;;;;;;5071160;28;20195;-45
2022/10/16 01:30:09;;;;;;;3.17;2.80;;;;;;;;;;5072837;28;20773;-45
2022/10/16 01:32:38;;;;;;;4.27;2.67;;;;;;;;;;5073114;28;20191;-45
2022/10/16 01:35:05;;;;;;;2.80;2.60;;;;;;;;;;5073319;28;20208;-45
2022/10/16 01:37:34;;;;;;;3.57;2.97;;;;;;;;;;5072910;28;20245;-47
2022/10/16 01:40:02;;;;;;;3.37;2.83;;;;;;;;;;5073272;28;20298;-45
2022/10/16 01:42:31;;;;;;;3.03;2.67;;;;;;;;;;5072818;28;20191;-45
2022/10/16 01:44:59;;;;;;;4.33;2.90;;;;;;;;;;5073045;28;20195;-45
2022/10/16 01:47:26;;;;;;;3.93;3.20;;;;;;;;;;5071150;28;20764;-45
2022/10/16 01:49:53;;;;;;;4.87;3.00;;;;;;;;;;5072464;28;20844;-45
2022/10/16 01:52:22;;;;;;;6.13;3.37;;;;;;;;;;5072702;28;20207;-45
2022/10/16 01:54:50;;;;;;;4.60;3.77;;;;;;;;;;5071141;28;20278;-45
2022/10/16 01:57:17;;;;;;;6.33;3.90;;;;;;;;;;5072120;28;20290;-45
2022/10/16 01:59:45;;;;;;;5.97;4.17;;;;;;;;;;5070406;28;20196;-45
2022/10/16 02:02:13;;;;;;;3.83;3.43;;;;;;;;;;5070581;28;20269;-45
2022/10/16 02:04:43;;;;;;;5.43;3.80;;;;;;;;;;5072186;28;20654;-45
2022/10/16 02:07:09;;;;;;;4.87;3.63;;;;;;;;;;5070352;28;20237;-45
2022/10/16 02:09:35;;;;;;;4.80;3.90;;;;;;;;;;5072503;28;20702;-45
2022/10/16 02:12:06;;;;;;;7.60;3.70;;;;;;;;;;5072456;28;20572;-45
2022/10/16 02:14:33;;;;;;;3.97;3.57;;;;;;;;;;5070475;28;20200;-45
2022/10/16 02:16:59;;;;;;;4.93;3.67;;;;;;;;;;5070484;28;20196;-45
2022/10/16 02:19:26;;;;;;;5.17;3.93;;;;;;;;;;5069751;28;20184;-45
2022/10/16 02:21:54;;;;;;;4.23;3.73;;;;;;;;;;5071672;28;20233;-45
2022/10/16 02:24:25;;;;;;;4.87;3.70;;;;;;;;;;5070110;28;20241;-45
2022/10/16 02:26:52;;;;;;;4.60;3.90;;;;;;;;;;5071399;28;20195;-45
2022/10/16 02:29:23;;;;;;;5.70;3.67;;;;;;;;;;5071714;28;20228;-45
2022/10/16 02:31:51;;;;;;;5.83;3.70;;;;;;;;;;5068298;28;20222;-45
2022/10/16 02:34:18;;;;;;;4.63;3.67;;;;;;;;;;5070941;28;20717;-45
2022/10/16 02:36:46;;;;;;;5.13;4.30;;;;;;;;;;5069691;28;20669;-45
2022/10/16 02:39:12;;;;;;;7.53;4.60;;;;;;;;;;5070257;28;20203;-45
2022/10/16 02:41:39;;;;;;;6.33;3.97;;;;;;;;;;5071218;28;20233;-45
2022/10/16 02:44:05;;;;;;;5.40;4.40;;;;;;;;;;5071665;28;20199;-45
2022/10/16 02:46:31;;;;;;;6.43;4.37;;;;;;;;;;5071623;28;20253;-45
2022/10/16 02:48:57;;;;;;;6.80;5.23;;;;;;;;;;5071459;28;20216;-45
2022/10/16 02:51:23;;;;;;;4.90;4.30;;;;;;;;;;5071176;28;20692;-45
2022/10/16 02:53:50;;;;;;;7.73;4.73;;;;;;;;;;5069956;28;20245;-45
2022/10/16 02:56:16;;;;;;;6.57;4.60;;;;;;;;;;5068910;28;20574;-45
2022/10/16 02:58:42;;;;;;;5.90;3.90;;;;;;;;;;5070984;28;20201;-45
2022/10/16 03:01:08;;;;;;;7.53;4.73;;;;;;;;;;5069491;28;20212;-45
2022/10/16 03:03:34;;;;;;;8.13;4.67;;;;;;;;;;5071248;28;20229;-45
2022/10/16 03:06:00;;;;;;;6.00;4.87;;;;;;;;;;5071572;28;20210;-45
2022/10/16 03:08:26;;;;;;;10.10;5.33;;;;;;;;;;5070720;28;20261;-44
2022/10/16 03:10:54;;;;;;;7.87;4.87;;;;;;;;;;5069625;28;20249;-45
2022/10/16 03:13:20;;;;;;;8.60;5.00;;;;;;;;;;5069440;28;20227;-45
2022/10/16 03:15:46;;;;;;;6.60;4.10;;;;;;;;;;5070799;28;20203;-45
2022/10/16 03:18:12;;;;;;;7.97;4.50;;;;;;;;;;5070838;28;20199;-45
2022/10/16 03:20:38;;;;;;;8.80;4.83;;;;;;;;;;5069228;28;20612;-45
2022/10/16 03:23:04;;;;;;;5.70;4.23;;;;;;;;;;5071033;28;20299;-45
2022/10/16 03:25:30;;;;;;;4.93;4.30;;;;;;;;;;5071081;28;20195;-45
2022/10/16 03:27:58;;;;;;;6.17;4.70;;;;;;;;;;5069258;28;20227;-45
2022/10/16 03:30:24;;;;;;;6.97;4.53;;;;;;;;;;5070984;28;20330;-45
2022/10/16 03:32:53;;;;;;;5.70;4.53;;;;;;;;;;5070750;28;20654;-45
2022/10/16 03:35:19;;;;;;;5.10;4.30;;;;;;;;;;5070678;28;20203;-45
2022/10/16 03:37:45;;;;;;;7.43;5.13;;;;;;;;;;5070899;28;20671;-44
2022/10/16 03:40:11;;;;;;;7.20;4.70;;;;;;;;;;5073723;28;20282;-45
2022/10/16 03:42:37;;;;;;;5.67;4.80;;;;;;;;;;5075143;28;20674;-45
2022/10/16 03:45:06;;;;;;;6.33;4.43;;;;;;;;;;5075263;28;20278;-45
2022/10/16 03:47:33;;;;;;;5.97;4.73;;;;;;;;;;5072980;28;20298;-45
2022/10/16 03:49:59;;;;;;;5.93;4.77;;;;;;;;;;5074462;28;20318;-44
2022/10/16 03:52:25;;;;;;;5.70;4.90;;;;;;;;;;5072140;28;20245;-45
2022/10/16 03:54:51;;;;;;;8.73;5.13;;;;;;;;;;5072211;28;20199;-45
2022/10/16 03:57:17;;;;;;;4.83;4.20;;;;;;;;;;5074958;28;20222;-44
2022/10/16 03:59:43;;;;;;;5.67;5.00;;;;;;;;;;5074753;28;20226;-45
2022/10/16 04:02:10;;;;;;;5.00;4.47;;;;;;;;;;5072890;28;20217;-45
2022/10/16 04:04:37;;;;;;;6.77;4.80;;;;;;;;;;5074428;28;20196;-44
2022/10/16 04:07:03;;;;;;;5.23;4.57;;;;;;;;;;5071486;28;20196;-46
2022/10/16 04:09:29;;;;;;;5.67;4.30;;;;;;;;;;5073888;28;20212;-44
2022/10/16 04:11:55;;;;;;;7.07;4.53;;;;;;;;;;5074925;28;20253;-45
2022/10/16 04:14:21;;;;;;;6.77;4.80;;;;;;;;;;5074449;28;20196;-45
2022/10/16 04:16:47;;;;;;;7.20;4.77;;;;;;;;;;5074754;28;20210;-45
2022/10/16 04:19:14;;;;;;;8.57;4.80;;;;;;;;;;5074064;28;20238;-45
2022/10/16 04:21:40;;;;;;;6.67;5.07;;;;;;;;;;5073699;28;20200;-45
2022/10/16 04:24:06;;;;;;;6.43;4.73;;;;;;;;;;5074561;28;20195;-45
2022/10/16 04:26:32;;;;;;;7.93;4.87;;;;;;;;;;5074295;28;20613;-45
2022/10/16 04:28:58;;;;;;;8.53;5.17;;;;;;;;;;5074407;28;20269;-45
2022/10/16 04:31:24;;;;;;;4.93;4.43;;;;;;;;;;5074360;28;20235;-45
2022/10/16 04:33:50;;;;;;;7.17;4.67;;;;;;;;;;5074379;28;20207;-45
2022/10/16 04:36:17;;;;;;;8.67;5.00;;;;;;;;;;5074434;28;20249;-45
2022/10/16 04:38:43;;;;;;;6.20;4.83;;;;;;;;;;5074035;28;20291;-45
2022/10/16 04:41:10;;;;;;;7.60;4.83;;;;;;;;;;5074165;28;20641;-46
2022/10/16 04:43:36;;;;;;;6.50;5.00;;;;;;;;;;5073837;28;20203;-44
2022/10/16 04:46:04;;;;;;;7.10;5.00;;;;;;;;;;5074252;28;20202;-45
2022/10/16 04:48:30;;;;;;;5.30;4.33;;;;;;;;;;5074052;28;20210;-45
2022/10/16 04:50:56;;;;;;;7.57;5.10;;;;;;;;;;5073208;28;20270;-45
2022/10/16 04:53:23;;;;;;;6.07;5.27;;;;;;;;;;5073620;28;20191;-45
2022/10/16 04:55:50;;;;;;;7.67;4.73;;;;;;;;;;5073829;28;20206;-45
2022/10/16 04:58:16;;;;;;;5.83;5.00;;;;;;;;;;5073884;28;20199;-45
2022/10/16 05:00:43;;;;;;;6.47;5.00;;;;;;;;;;5073393;28;20206;-45
2022/10/16 05:03:09;;;;;;;6.57;4.47;;;;;;;;;;5073722;28;20196;-45
2022/10/16 05:05:35;;;;;;;10.87;6.07;;;;;;;;;;5073705;28;20219;-45
2022/10/16 05:08:01;;;;;;;6.27;4.80;;;;;;;;;;5073247;28;20702;-45
2022/10/16 05:10:28;;;;;;;9.83;5.80;;;;;;;;;;5073338;28;20596;-45
2022/10/16 05:12:54;;;;;;;8.23;4.87;;;;;;;;;;5073440;28;20642;-45
2022/10/16 05:15:21;;;;;;;5.87;4.80;;;;;;;;;;5073535;28;20195;-45
2022/10/16 05:17:47;;;;;;;8.77;5.03;;;;;;;;;;5072996;28;20194;-45
2022/10/16 05:20:13;;;;;;;9.60;5.10;;;;;;;;;;5073476;28;20195;-45
2022/10/16 05:22:39;;;;;;;6.13;4.87;;;;;;;;;;5073347;28;20218;-45
2022/10/16 05:25:05;;;;;;;6.77;4.93;;;;;;;;;;5073377;28;20199;-45
2022/10/16 05:27:32;;;;;;;5.47;4.27;;;;;;;;;;5073283;28;20196;-45
2022/10/16 05:29:58;;;;;;;7.60;4.63;;;;;;;;;;5073427;28;20231;-45
2022/10/16 05:32:25;;;;;;;8.20;4.87;;;;;;;;;;5073067;28;20195;-45
2022/10/16 05:34:51;;;;;;;13.03;5.33;;;;;;;;;;5073258;28;20192;-44
2022/10/16 05:37:17;;;;;;;6.77;4.57;;;;;;;;;;5073012;28;20196;-44
2022/10/16 05:39:43;;;;;;;9.43;4.77;;;;;;;;;;5072904;28;20230;-45
2022/10/16 05:42:09;;;;;;;7.90;4.60;;;;;;;;;;5073069;28;20206;-45
2022/10/16 05:44:37;;;;;;;7.73;4.20;;;;;;;;;;5072700;28;20203;-45
2022/10/16 05:47:03;;;;;;;8.47;4.67;;;;;;;;;;5073036;28;20259;-45
2022/10/16 05:49:29;;;;;;;9.17;4.73;;;;;;;;;;5072504;28;20284;-45
2022/10/16 05:51:55;;;;;;;7.83;4.30;;;;;;;;;;5072727;28;20573;-45
2022/10/16 05:54:21;;;;;;;7.93;4.53;;;;;;;;;;5071563;28;20710;-45
2022/10/16 05:56:47;;;;;;;6.50;4.23;;;;;;;;;;5072454;28;20199;-45
2022/10/16 05:59:13;;;;;;;7.17;4.60;;;;;;;;;;5072337;28;20199;-45
2022/10/16 06:01:40;;;;;;;4.80;4.30;;;;;;;;;;5069954;28;20294;-45
2022/10/16 06:04:06;;;;;;;5.90;4.47;;;;;;;;;;5071366;28;20286;-45
2022/10/16 06:06:32;;;;;;;5.50;3.90;;;;;;;;;;5072140;28;20231;-44
2022/10/16 06:08:59;;;;;;;6.17;4.50;;;;;;;;;;5070470;28;20920;-45
2022/10/16 06:11:26;;;;;;;6.83;4.63;;;;;;;;;;5072234;28;20295;-44
2022/10/16 06:13:53;;;;;;;7.47;4.23;;;;;;;;;;5072072;28;20203;-45
2022/10/16 06:16:19;;;;;;;4.60;4.20;;;;;;;;;;5072489;28;20199;-45
2022/10/16 06:18:47;;;;;;;3.87;3.47;;;;;;;;;;5070639;28;20234;-45
2022/10/16 06:21:16;;;;;;;5.37;3.33;;;;;;;;;;5072249;28;20270;-45
2022/10/16 06:23:42;;;;;;;5.60;3.60;;;;;;;;;;5072144;28;20224;-45
2022/10/16 06:26:09;;;;;;;4.13;3.20;;;;;;;;;;5072159;28;20237;-45
2022/10/16 06:28:35;;;;;;;5.03;3.13;;;;;;;;;;5072314;28;20257;-45
2022/10/16 06:31:01;;;;;;;4.20;3.40;;;;;;;;;;5071599;28;20226;-44
2022/10/16 06:33:27;;;;;;;4.27;3.20;;;;;;;;;;5071735;28;20195;-44
2022/10/16 06:36:00;;;;;;;5.83;3.63;;;;;;;;;;5071745;28;20644;-44
2022/10/16 06:38:26;;;;;;;4.30;3.13;;;;;;;;;;5072374;28;20196;-45
2022/10/16 06:40:53;;;;;;;5.83;3.27;;;;;;;;;;5072250;28;20266;-44
2022/10/16 06:43:19;;;;;;;5.70;3.80;;;;;;;;;;5072413;28;20200;-44
2022/10/16 06:45:50;;;;;;;6.73;5.17;;;;;;;;;;5072086;28;20274;-44
2022/10/16 06:48:16;;;;;;;6.50;4.40;;;;;;;;;;5072170;28;20265;-44
2022/10/16 06:50:42;;;;;;;3.30;3.00;;;;;;;;;;5069027;28;20248;-44
2022/10/16 06:53:10;;;;;;;5.07;2.63;;;;;;;;;;5071852;28;20264;-44
2022/10/16 06:55:36;;;;;;;2.97;2.50;;;;;;;;;;5069492;28;20230;-44
2022/10/16 06:58:02;;;;;;;4.93;2.80;;;;;;;;;;5071511;28;20292;-44
2022/10/16 07:00:28;;;;;;;4.80;2.80;;;;;;;;;;5071730;28;20421;-44
2022/10/16 07:02:54;;;;;;;2.90;2.37;;;;;;;;;;5069581;28;20210;-44
2022/10/16 07:05:20;;;;;;;5.07;2.90;;;;;;;;;;5068046;28;20592;-44
2022/10/16 07:07:46;;;;;;;3.03;2.50;;;;;;;;;;5070717;28;20223;-44
2022/10/16 07:10:13;;;;;;;2.83;2.13;;;;;;;;;;5070669;28;20246;-45
2022/10/16 07:12:39;;;;;;;3.77;2.13;;;;;;;;;;5069814;28;20206;-45
2022/10/16 07:15:06;;;;;;;2.60;2.07;;;;;;;;;;5069508;28;20696;-44
2022/10/16 07:17:33;;;;;;;2.57;2.10;;;;;;;;;;5071571;28;20565;-45
2022/10/16 07:19:59;;;;;;;3.77;2.27;;;;;;;;;;5071489;28;20248;-44
2022/10/16 07:22:25;;;;;;;2.03;1.83;;;;;;;;;;5071221;28;20199;-44
2022/10/16 07:24:52;;;;;;;4.17;2.40;;;;;;;;;;5071491;28;20201;-44
2022/10/16 07:27:22;;;;;;;3.40;2.30;;;;;;;;;;5069626;28;20245;-46
2022/10/16 07:29:48;;;;;;;4.13;2.30;;;;;;;;;;5070857;28;20215;-46
2022/10/16 07:32:14;;;;;;;2.10;1.90;;;;;;;;;;5071225;28;20199;-47
2022/10/16 07:34:40;;;;;;;2.70;1.87;;;;;;;;;;5068669;28;20192;-45
2022/10/16 07:37:06;;;;;;;2.60;1.90;;;;;;;;;;5068820;28;20203;-44
2022/10/16 07:39:32;;;;;;;4.07;2.13;;;;;;;;;;5067421;28;20196;-50
2022/10/16 07:41:58;;;;;;;3.83;2.07;;;;;;;;;;5070563;28;20670;-45
2022/10/16 07:44:26;;;;;;;2.50;1.87;;;;;;;;;;5068027;28;20286;-45
2022/10/16 07:46:52;;;;;;;1.80;1.70;;;;;;;;;;5068626;28;20207;-45
2022/10/16 07:49:18;;;;;;;2.10;1.87;;;;;;;;;;5068839;28;20239;-45
2022/10/16 07:51:44;;;;;;;1.80;1.70;;;;;;;;;;5070346;28;20203;-45
2022/10/16 07:54:10;;;;;;;3.03;2.67;;;;;;;;;;5070940;28;20200;-45
2022/10/16 07:56:36;;;;;;;2.43;1.90;;;;;;;;;;5070955;28;20204;-45
2022/10/16 07:59:02;;;;;;;2.60;1.90;;;;;;;;;;5071359;28;20253;-45
2022/10/16 08:01:29;;;;;;;2.60;1.67;;;;;;;;;;5071452;28;20195;-45
2022/10/16 08:03:55;;;;;;;4.20;1.90;;;;;;;;;;5071588;28;20204;-46
2022/10/16 08:06:22;;;;;;;1.90;1.53;;;;;;;;;;5071352;28;20288;-45
2022/10/16 08:08:48;;;;;;;2.73;1.60;;;;;;;;;;5070995;28;20831;-45
2022/10/16 08:11:14;;;;;;;2.60;1.63;;;;;;;;;;5071420;28;20227;-45
2022/10/16 08:13:40;;;;;;;2.33;1.77;;;;;;;;;;5071237;28;20199;-44
2022/10/16 08:16:08;;;;;;;1.70;1.60;;;;;;;;;;5071224;28;20199;-44
2022/10/16 08:18:35;;;;;;;1.50;1.40;;;;;;;;;;5070902;28;20196;-44
2022/10/16 08:21:01;;;;;;;1.33;1.23;;;;;;;;;;5071117;28;20247;-44
2022/10/16 08:23:28;;;;;;;1.60;1.50;;;;;;;;;;5070808;28;20199;-44
2022/10/16 08:25:54;;;;;;;2.33;1.70;;;;;;;;;;5073017;28;20199;-44
2022/10/16 08:28:20;;;;;;;2.17;1.43;;;;;;;;;;5074984;28;20215;-44
2022/10/16 08:30:46;;;;;;;2.57;1.50;;;;;;;;;;5074620;28;20219;-44
2022/10/16 08:33:12;;;;;;;1.57;1.40;;;;;;;;;;5074436;28;20203;-44
2022/10/16 08:35:39;;;;;;;2.23;1.30;;;;;;;;;;5074524;28;20196;-44
2022/10/16 08:38:06;;;;;;;1.63;1.23;;;;;;;;;;5074684;28;20234;-45
2022/10/16 08:40:32;;;;;;;1.47;1.33;;;;;;;;;;5074577;28;20193;-44
2022/10/16 08:43:09;;;;;;;1.50;1.30;;;;;;;;;;5074717;28;20211;-44
2022/10/16 08:45:42;;;;;;;2.43;1.30;;;;;;;;;;5074409;28;20196;-45
2022/10/16 08:48:18;;;;;;;3.93;1.47;;;;;;;;;;5074667;28;20572;-44
2022/10/16 08:50:49;;;;;;;2.23;1.50;;;;;;;;;;5074014;28;20331;-45
2022/10/16 08:53:18;;;;;;;4.50;1.30;;;;;;;;;;5074172;28;20215;-44
2022/10/16 08:55:45;;;;;;;2.87;2.17;;;;;;;;;;5074215;28;20201;-44
2022/10/16 08:58:13;;;;;;;2.03;1.37;;;;;;;;;;5074342;28;20288;-45
2022/10/16 09:00:40;;;;;;;3.33;1.33;;;;;;;;;;5073070;28;20607;-45
2022/10/16 09:03:11;;;;;;;4.20;1.23;;;;;;;;;;5074359;28;20288;-45
2022/10/16 09:05:44;;;;;;;1.80;1.40;;;;;;;;;;5074060;28;20667;-45
2022/10/16 09:08:16;;;;;;;2.50;1.50;;;;;;;;;;5074151;28;20267;-45
2022/10/16 09:10:47;;;;;;;2.27;1.30;;;;;;;;;;5071834;28;20240;-45
2022/10/16 09:13:18;;;;;;;2.03;1.40;;;;;;;;;;5072781;28;20289;-48
2022/10/16 09:15:48;;;;;;;1.83;1.30;;;;;;;;;;5073697;28;20360;-45
2022/10/16 09:18:18;;;;;;;3.77;1.40;;;;;;;;;;5073483;28;20199;-45
2022/10/16 09:20:48;;;;;;;2.77;1.33;;;;;;;;;;5073252;28;20328;-45
2022/10/16 09:23:17;;;;;;;3.30;1.20;;;;;;;;;;5073371;28;20199;-45
2022/10/16 09:25:44;;;;;;;2.80;1.30;;;;;;;;;;5073260;28;20211;-45
2022/10/16 09:28:10;;;;;;;1.17;1.07;;;;;;;;;;5073599;28;20195;-44
2022/10/16 09:30:39;;;;;;;1.70;1.20;;;;;;;;;;5073303;28;20265;-45
2022/10/16 09:33:06;;;;;;;3.20;1.30;;;;;;;;;;5072907;28;20202;-45
2022/10/16 09:35:34;;;;;;;2.87;1.37;;;;;;;;;;5072322;28;20195;-45
2022/10/16 09:38:00;;;;;;;2.30;1.40;;;;;;;;;;5072268;28;20219;-45
2022/10/16 09:40:29;;;;;;;4.17;1.40;;;;;;;;;;5072902;28;20187;-45
2022/10/16 09:42:58;;;;;;;2.43;1.00;;;;;;;;;;5073213;28;20294;-46
2022/10/16 09:45:24;;;;;;;1.50;1.40;;;;;;;;;;5072989;28;20253;-46
2022/10/16 09:47:51;;;;;;;2.83;1.47;;;;;;;;;;5072726;28;20286;-46
2022/10/16 09:50:22;;;;;;;3.93;1.50;;;;;;;;;;5072748;28;20239;-46
2022/10/16 09:52:48;;;;;;;2.70;1.30;;;;;;;;;;5073294;28;20650;-46
2022/10/16 09:55:15;;;;;;;4.40;1.60;;;;;;;;;;5073131;28;20675;-46
2022/10/16 09:57:50;;;;;;;3.43;1.90;;;;;;;;;;5073230;28;20223;-46
2022/10/16 10:00:16;;;;;;;2.90;1.60;;;;;;;;;;5073195;28;20203;-45
2022/10/16 10:02:42;;;;;;;5.13;1.60;;;;;;;;;;5073001;28;20287;-45
2022/10/16 10:05:19;;;;;;;3.03;1.70;;;;;;;;;;5071653;28;20861;-45
2022/10/16 10:07:46;;;;;;;3.10;1.80;;;;;;;;;;5073131;28;20914;-46
2022/10/16 10:10:20;;;;;;;2.90;1.40;;;;;;;;;;5072728;28;20228;-46
2022/10/16 10:12:46;;;;;;;2.13;1.53;;;;;;;;;;5072946;28;20187;-45
2022/10/16 10:15:21;;;;;;;2.93;1.20;;;;;;;;;;5069506;28;20243;-45
2022/10/16 10:17:47;;;;;;;2.80;1.50;;;;;;;;;;5061001;28;20203;-46
2022/10/16 10:20:19;;;;;;;4.30;1.67;;;;;;;;;;5057769;28;20200;-45
2022/10/16 10:22:45;;;;;;;6.03;1.60;;;;;;;;;;5052613;28;20283;-45
2022/10/16 10:25:32;;;;;;;4.00;1.40;;;;;;;;;;5052983;28;20197;-47
2022/10/16 10:28:15;;;;;;;1.83;1.07;;;;;;;;;;5053894;28;20204;-45
2022/10/16 10:30:44;;;;;;;3.37;1.50;;;;;;;;;;5056582;28;20222;-45
2022/10/16 10:33:16;;;;;;;4.73;1.57;;;;;;;;;;5051291;28;20541;-45
2022/10/16 10:35:45;;;;;;;5.40;1.70;;;;;;;;;;5051980;28;20206;-45
2022/10/16 10:38:19;;;;;;;2.37;1.50;;;;;;;;;;5052083;28;20240;-45
2022/10/16 10:40:48;;;;;;;4.10;1.60;;;;;;;;;;5052019;28;20185;-45
2022/10/16 10:43:21;;;;;;;1.97;1.50;;;;;;;;;;5052276;28;20236;-45
2022/10/16 10:45:52;;;;;;;4.33;1.27;;;;;;;;;;5051983;28;20204;-46
2022/10/16 10:48:23;;;;;;;2.07;1.40;;;;;;;;;;5051776;28;20303;-45
2022/10/16 10:50:52;;;;;;;3.90;1.73;;;;;;;;;;5051338;28;20243;-45
2022/10/16 10:53:25;;;;;;;3.13;1.40;;;;;;;;;;5051774;28;20389;-45
2022/10/16 10:55:54;;;;;;;2.23;1.30;;;;;;;;;;5050923;28;20647;-45
2022/10/16 10:58:39;;;;;;;3.03;1.53;;;;;;;;;;5051928;28;20287;-45
2022/10/16 11:01:10;;;;;;;2.50;1.30;;;;;;;;;;5051878;28;20250;-45
2022/10/16 11:03:43;;;;;;;3.00;1.20;;;;;;;;;;5051683;28;20209;-45
2022/10/16 11:06:11;;;;;;;3.47;1.53;;;;;;;;;;5051641;28;20207;-46
2022/10/16 11:08:40;;;;;;;2.33;1.50;;;;;;;;;;5051750;28;20246;-46
2022/10/16 11:11:09;;;;;;;3.73;1.30;;;;;;;;;;5051975;28;20224;-45
2022/10/16 11:13:38;;;;;;;2.80;1.37;;;;;;;;;;5051842;28;20188;-46
2022/10/16 11:16:11;;;;;;;2.50;1.30;;;;;;;;;;5051833;28;20207;-46
2022/10/16 11:18:43;;;;;;;3.80;1.37;;;;;;;;;;5051773;28;20205;-46
2022/10/16 11:21:10;;;;;;;2.70;1.37;;;;;;;;;;5051642;28;20674;-46
2022/10/16 11:23:40;;;;;;;2.53;1.33;;;;;;;;;;5051691;28;20643;-46
2022/10/16 11:26:11;;;;;;;3.93;1.30;;;;;;;;;;5051655;28;20720;-46
2022/10/16 11:28:39;;;;;;;4.40;1.30;;;;;;;;;;5051612;28;20666;-46
2022/10/16 11:31:08;;;;;;;1.20;1.10;;;;;;;;;;5050828;28;20315;-46
2022/10/16 11:33:39;;;;;;;2.53;1.13;;;;;;;;;;5051465;28;20663;-46
2022/10/16 11:36:09;;;;;;;3.50;1.20;;;;;;;;;;5051541;28;20196;-46
2022/10/16 11:38:38;;;;;;;3.90;1.53;;;;;;;;;;5051681;28;20688;-46
2022/10/16 11:41:09;;;;;;;2.70;1.50;;;;;;;;;;5051697;28;20553;-46
2022/10/16 11:43:39;;;;;;;3.03;1.10;;;;;;;;;;5051645;28;20655;-46
2022/10/16 11:46:08;;;;;;;3.50;1.20;;;;;;;;;;5051715;28;20231;-46
2022/10/16 11:48:37;;;;;;;2.70;1.20;;;;;;;;;;5051406;28;20198;-46
2022/10/16 11:51:21;;;;;;;2.93;1.00;;;;;;;;;;5049944;28;20248;-56
2022/10/16 11:53:51;;;;;;;2.77;1.70;;;;;;;;;;5046250;28;20228;-45
2022/10/16 11:56:18;;;;;;;4.73;1.60;;;;;;;;;;5051393;28;20239;-45
2022/10/16 11:58:50;;;;;;;3.07;1.37;;;;;;;;;;5051281;28;20200;-46
2022/10/16 12:01:18;;;;;;;3.97;1.10;;;;;;;;;;5054179;28;20242;-46
2022/10/16 12:03:48;;;;;;;2.87;1.53;;;;;;;;;;5055543;28;20291;-46
2022/10/16 12:06:28;;;;;;;2.57;1.30;;;;;;;;;;5055449;28;20285;-47
2022/10/16 12:08:56;;;;;;;5.30;1.50;;;;;;;;;;5055275;28;20307;-45
2022/10/16 12:11:32;;;;;;;4.17;1.53;;;;;;;;;;5055285;28;20286;-45
2022/10/16 12:14:04;;;;;;;2.03;1.23;;;;;;;;;;5055290;28;20186;-47
2022/10/16 12:16:30;;;;;;;3.43;1.37;;;;;;;;;;5055271;28;20205;-46
2022/10/16 12:19:11;;;;;;;3.03;1.20;;;;;;;;;;5054832;28;20200;-45
2022/10/16 12:21:37;;;;;;;4.53;1.57;;;;;;;;;;5054820;28;20202;-45
2022/10/16 12:24:05;;;;;;;4.30;1.33;;;;;;;;;;5054819;28;20258;-46
2022/10/16 12:26:33;;;;;;;1.90;0.93;;;;;;;;;;5053014;28;20204;-45
2022/10/16 12:29:10;;;;;;;4.03;1.00;;;;;;;;;;5059519;28;20208;-46
2022/10/16 12:31:37;;;;;;;2.20;1.20;;;;;;;;;;5053663;28;20224;-47
2022/10/16 12:34:04;;;;;;;1.43;1.00;;;;;;;;;;5069989;28;20200;-47
2022/10/16 12:36:31;;;;;;;3.53;1.30;;;;;;;;;;5071882;28;20310;-46
2022/10/16 12:38:58;;;;;;;2.33;1.17;;;;;;;;;;5073269;28;20318;-46
2022/10/16 12:41:27;;;;;;;4.37;1.60;;;;;;;;;;5073792;28;20200;-46
2022/10/16 12:43:53;;;;;;;2.30;1.13;;;;;;;;;;5073659;28;20258;-47
2022/10/16 12:46:23;;;;;;;1.93;0.93;;;;;;;;;;5073891;28;20666;-47
2022/10/16 12:48:50;;;;;;;3.13;1.20;;;;;;;;;;5073687;28;20188;-47
2022/10/16 12:51:24;;;;;;;1.70;1.20;;;;;;;;;;5073856;28;20237;-47
2022/10/16 12:53:58;;;;;;;2.03;1.00;;;;;;;;;;5073558;28;20216;-47
2022/10/16 12:56:29;;;;;;;3.13;1.23;;;;;;;;;;5074313;28;20199;-46
2022/10/16 12:59:03;;;;;;;1.90;1.20;;;;;;;;;;5073990;28;20200;-47
2022/10/16 13:01:35;;;;;;;4.73;2.40;;;;;;;;;;5071766;28;20199;-54
2022/10/16 13:04:15;;;;;;;3.23;1.20;;;;;;;;;;5068910;28;20291;-46
2022/10/16 13:06:46;;;;;;;2.33;1.10;;;;;;;;;;5071508;28;20247;-46
2022/10/16 13:09:17;;;;;;;5.00;1.27;;;;;;;;;;5071607;28;20230;-46
2022/10/16 13:11:53;;;;;;;1.50;1.00;;;;;;;;;;5073135;28;20215;-47
2022/10/16 13:14:25;;;;;;;2.50;1.10;;;;;;;;;;5073693;28;20268;-46
2022/10/16 13:16:56;;;;;;;1.13;1.00;;;;;;;;;;5073496;28;20219;-46
2022/10/16 13:19:28;;;;;;;2.43;1.00;;;;;;;;;;5064892;28;20273;-46
2022/10/16 13:21:56;;;;;;;3.13;1.50;;;;;;;;;;5073169;28;20200;-46
2022/10/16 13:24:28;;;;;;;2.63;0.90;;;;;;;;;;5073545;28;20197;-46
2022/10/16 13:26:58;;;;;;;2.17;1.70;;;;;;;;;;5073730;28;20290;-46
2022/10/16 13:29:24;;;;;;;2.63;1.90;;;;;;;;;;5073583;28;20204;-47
2022/10/16 13:31:50;;;;;;;1.43;1.07;;;;;;;;;;5072884;28;20216;-46
2022/10/16 13:34:18;;;;;;;3.20;1.23;;;;;;;;;;5071587;28;20731;-46
2022/10/16 13:36:46;;;;;;;1.10;1.00;;;;;;;;;;5072657;28;20199;-46
2022/10/16 13:39:13;;;;;;;4.43;1.13;;;;;;;;;;5072494;28;20256;-46
2022/10/16 13:41:39;;;;;;;2.57;1.23;;;;;;;;;;5072815;28;20548;-47
2022/10/16 13:44:12;;;;;;;2.63;1.37;;;;;;;;;;5071934;28;20653;-46
2022/10/16 13:46:38;;;;;;;3.53;1.20;;;;;;;;;;5072439;28;20208;-46
2022/10/16 13:49:05;;;;;;;1.77;1.03;;;;;;;;;;5072469;28;20689;-46
2022/10/16 13:51:33;;;;;;;3.37;1.30;;;;;;;;;;5072551;28;20648;-46
2022/10/16 13:53:59;;;;;;;4.73;1.30;;;;;;;;;;5070124;28;20838;-46
2022/10/16 13:56:27;;;;;;;2.20;1.07;;;;;;;;;;5072025;28;20210;-47
2022/10/16 13:59:21;;;;;;;2.73;1.13;;;;;;;;;;5071371;28;20192;-47
2022/10/16 14:01:50;;;;;;;2.47;1.43;;;;;;;;;;5072118;28;20662;-47
2022/10/16 14:04:16;;;;;;;2.20;1.20;;;;;;;;;;5069870;28;20204;-47
2022/10/16 14:06:43;;;;;;;3.10;1.53;;;;;;;;;;5069956;28;20242;-46
2022/10/16 14:09:13;;;;;;;3.27;1.23;;;;;;;;;;5072377;28;20229;-46
2022/10/16 14:11:44;;;;;;;3.47;1.27;;;;;;;;;;5071658;28;20238;-46
2022/10/16 14:14:11;;;;;;;2.17;0.93;;;;;;;;;;5071474;28;20233;-46
2022/10/16 14:16:40;;;;;;;5.40;1.50;;;;;;;;;;5071384;28;20203;-46
2022/10/16 14:19:17;;;;;;;2.73;1.10;;;;;;;;;;5071822;28;20209;-46
2022/10/16 14:21:43;;;;;;;2.60;1.43;;;;;;;;;;5072608;28;20230;-46
2022/10/16 14:24:12;;;;;;;3.03;1.57;;;;;;;;;;5071376;28;20664;-46
2022/10/16 14:26:42;;;;;;;2.90;1.80;;;;;;;;;;5072261;28;20654;-46
2022/10/16 14:29:11;;;;;;;1.80;1.30;;;;;;;;;;5072415;28;20722;-46
2022/10/16 14:31:39;;;;;;;2.83;1.60;;;;;;;;;;5071948;28;20232;-46
2022/10/16 14:34:05;;;;;;;2.43;1.30;;;;;;;;;;5071960;28;20201;-46
2022/10/16 14:36:34;;;;;;;2.67;1.60;;;;;;;;;;5070517;28;20211;-45
2022/10/16 14:39:01;;;;;;;2.07;1.30;;;;;;;;;;5072329;28;20302;-46
2022/10/16 14:41:28;;;;;;;3.63;1.40;;;;;;;;;;5072388;28;20237;-45
2022/10/16 14:43:56;;;;;;;4.30;1.57;;;;;;;;;;5072272;28;20205;-46
2022/10/16 14:46:25;;;;;;;3.40;1.47;;;;;;;;;;5072192;28;20198;-45
2022/10/16 14:48:53;;;;;;;3.87;1.20;;;;;;;;;;5072121;28;20627;-45